createdAt,value
2023-05-17T00:00:32.045Z,100.00
2023-05-17T00:02:58.545Z,100.00
2023-05-17T00:05:25.170Z,100.00
2023-05-17T00:07:51.822Z,100.00
2023-05-17T00:10:18.312Z,100.00
2023-05-17T00:12:44.798Z,100.00
2023-05-17T00:15:11.456Z,100.00
2023-05-17T00:17:38.114Z,100.00
2023-05-17T00:20:05.730Z,100.00
2023-05-17T00:22:32.141Z,100.00
2023-05-17T00:24:58.549Z,100.00
2023-05-17T00:27:25.182Z,100.00
2023-05-17T00:29:51.611Z,100.00
2023-05-17T00:32:18.010Z,100.00
2023-05-17T00:34:45.015Z,100.00
2023-05-17T00:37:11.477Z,100.00
2023-05-17T00:39:37.904Z,100.00
2023-05-17T00:42:04.606Z,100.00
2023-05-17T00:44:31.136Z,100.00
2023-05-17T00:46:59.687Z,100.00
2023-05-17T00:49:26.811Z,100.00
2023-05-17T00:51:53.401Z,100.00
2023-05-17T00:54:19.778Z,100.00
2023-05-17T00:56:46.396Z,100.00
2023-05-17T00:59:13.523Z,100.00
2023-05-17T01:01:43.654Z,100.00
2023-05-17T01:04:10.689Z,100.00
2023-05-17T01:06:37.274Z,100.00
2023-05-17T01:09:07.120Z,100.00
2023-05-17T01:12:19.117Z,100.00
2023-05-17T01:14:52.118Z,100.00
2023-05-17T01:17:25.710Z,100.00
2023-05-17T01:20:01.816Z,100.00
2023-05-17T01:22:47.073Z,100.00
2023-05-17T01:25:23.314Z,100.00
2023-05-17T01:27:49.944Z,100.00
2023-05-17T01:30:18.096Z,100.00
2023-05-17T01:32:44.609Z,100.00
2023-05-17T01:35:12.052Z,100.00
2023-05-17T01:37:39.362Z,100.00
2023-05-17T01:40:07.262Z,100.00
2023-05-17T01:42:33.957Z,100.00
2023-05-17T01:45:07.722Z,100.00
2023-05-17T01:47:47.996Z,100.00
2023-05-17T01:50:15.459Z,100.00
2023-05-17T01:52:46.342Z,100.00
2023-05-17T01:55:21.812Z,100.00
2023-05-17T01:57:49.131Z,100.00
2023-05-17T02:00:15.943Z,100.00
2023-05-17T02:02:42.823Z,100.00
2023-05-17T02:05:09.780Z,100.00
2023-05-17T02:07:36.266Z,100.00
2023-05-17T02:10:03.627Z,100.00
2023-05-17T02:12:30.237Z,100.00
2023-05-17T02:14:56.667Z,100.00
2023-05-17T02:17:23.131Z,100.00
2023-05-17T02:19:49.601Z,100.00
2023-05-17T02:22:15.985Z,100.00
2023-05-17T02:24:42.398Z,100.00
2023-05-17T02:27:08.988Z,100.00
2023-05-17T02:29:35.411Z,100.00
2023-05-17T02:32:01.972Z,100.00
2023-05-17T02:34:28.449Z,100.00
2023-05-17T02:36:54.887Z,100.00
2023-05-17T02:39:21.292Z,100.00
2023-05-17T02:41:47.893Z,100.00
2023-05-17T02:44:14.299Z,100.00
2023-05-17T02:46:41.854Z,100.00
2023-05-17T02:49:08.261Z,100.00
2023-05-17T02:51:34.675Z,100.00
2023-05-17T02:54:01.044Z,100.00
2023-05-17T02:56:27.677Z,100.00
2023-05-17T02:58:55.404Z,100.00
2023-05-17T03:01:21.865Z,100.00
2023-05-17T03:03:49.010Z,100.00
2023-05-17T03:06:15.629Z,100.00
2023-05-17T03:08:42.017Z,100.00
2023-05-17T03:11:08.599Z,100.00
2023-05-17T03:13:34.985Z,100.00
2023-05-17T03:16:01.368Z,100.00
2023-05-17T03:18:27.918Z,100.00
2023-05-17T03:20:57.348Z,100.00
2023-05-17T03:23:23.814Z,100.00
2023-05-17T03:25:50.329Z,100.00
2023-05-17T03:28:16.721Z,100.00
2023-05-17T03:30:43.142Z,100.00
2023-05-17T03:33:09.704Z,100.00
2023-05-17T03:35:36.198Z,100.00
2023-05-17T03:38:02.666Z,100.00
2023-05-17T03:40:29.265Z,100.00
2023-05-17T03:42:55.683Z,100.00
2023-05-17T03:45:22.136Z,100.00
2023-05-17T03:47:48.588Z,100.00
2023-05-17T03:50:15.003Z,100.00
2023-05-17T03:52:42.027Z,100.00
2023-05-17T03:55:09.434Z,100.00
2023-05-17T03:57:35.823Z,100.00
2023-05-17T04:00:02.225Z,100.00
2023-05-17T04:02:29.011Z,100.00
2023-05-17T04:04:55.516Z,100.00
2023-05-17T04:07:21.961Z,97.63
2023-05-17T04:09:48.624Z,91.60
2023-05-17T04:12:15.107Z,89.49
2023-05-17T04:14:41.504Z,91.67
2023-05-17T04:17:08.092Z,93.00
2023-05-17T04:19:37.448Z,98.09
2023-05-17T04:22:06.979Z,100.00
2023-05-17T04:24:33.592Z,100.00
2023-05-17T04:27:02.691Z,100.00
2023-05-17T04:29:29.979Z,100.00
2023-05-17T04:31:56.392Z,100.00
2023-05-17T04:34:23.892Z,100.00
2023-05-17T04:36:50.654Z,100.00
2023-05-17T04:39:18.253Z,100.00
2023-05-17T04:41:44.643Z,100.00
2023-05-17T04:44:11.262Z,100.00
2023-05-17T04:46:37.959Z,100.00
2023-05-17T04:49:04.541Z,100.00
2023-05-17T04:51:31.175Z,100.00
2023-05-17T04:54:00.936Z,100.00
2023-05-17T04:56:29.129Z,100.00
2023-05-17T04:58:55.631Z,100.00
2023-05-17T05:01:22.198Z,100.00
2023-05-17T05:03:48.638Z,100.00
2023-05-17T05:06:16.254Z,100.00
2023-05-17T05:08:42.857Z,100.00
2023-05-17T05:11:09.257Z,100.00
2023-05-17T05:13:38.150Z,100.00
2023-05-17T05:16:06.227Z,100.00
2023-05-17T05:18:32.780Z,100.00
2023-05-17T05:20:59.401Z,100.00
2023-05-17T05:23:25.856Z,100.00
2023-05-17T05:25:52.292Z,100.00
2023-05-17T05:28:18.796Z,100.00
2023-05-17T05:30:45.414Z,100.00
2023-05-17T05:33:11.932Z,100.00
2023-05-17T05:35:38.500Z,100.00
2023-05-17T05:38:05.005Z,100.00
2023-05-17T05:40:31.671Z,100.00
2023-05-17T05:42:58.526Z,100.00
2023-05-17T05:45:25.169Z,100.00
2023-05-17T05:47:51.692Z,100.00
2023-05-17T05:50:18.272Z,100.00
2023-05-17T05:52:44.863Z,100.00
2023-05-17T05:55:11.406Z,100.00
2023-05-17T05:57:37.831Z,100.00
2023-05-17T06:00:04.965Z,100.00
2023-05-17T06:02:31.585Z,100.00
2023-05-17T06:04:57.991Z,100.00
2023-05-17T06:07:24.439Z,100.00
2023-05-17T06:09:50.867Z,100.00
2023-05-17T06:12:17.814Z,100.00
2023-05-17T06:14:44.405Z,100.00
2023-05-17T06:17:10.789Z,100.00
2023-05-17T06:19:37.404Z,100.00
2023-05-17T06:22:04.148Z,100.00
2023-05-17T06:24:30.556Z,100.00
2023-05-17T06:26:59.755Z,100.00
2023-05-17T06:29:26.144Z,100.00
2023-05-17T06:31:52.572Z,100.00
2023-05-17T06:34:19.033Z,100.00
2023-05-17T06:36:45.421Z,100.00
2023-05-17T06:39:11.800Z,100.00
2023-05-17T06:41:38.453Z,100.00
2023-05-17T06:44:05.042Z,100.00
2023-05-17T06:46:31.417Z,100.00
2023-05-17T06:48:58.317Z,100.00
2023-05-17T06:51:24.939Z,100.00
2023-05-17T06:53:51.404Z,100.00
2023-05-17T06:56:17.817Z,100.00
2023-05-17T06:58:44.235Z,100.00
2023-05-17T07:01:10.654Z,100.00
2023-05-17T07:03:37.217Z,100.00
2023-05-17T07:06:03.936Z,100.00
2023-05-17T07:08:30.438Z,100.00
2023-05-17T07:10:56.868Z,100.00
2023-05-17T07:13:23.262Z,100.00
2023-05-17T07:15:49.663Z,100.00
2023-05-17T07:18:16.678Z,100.00
2023-05-17T07:20:43.251Z,100.00
2023-05-17T07:23:09.742Z,100.00
2023-05-17T07:25:38.935Z,100.00
2023-05-17T07:28:05.531Z,100.00
2023-05-17T07:30:31.961Z,100.00
2023-05-17T07:32:58.625Z,100.00
2023-05-17T07:35:25.060Z,100.00
2023-05-17T07:37:51.441Z,100.00
2023-05-17T07:40:18.306Z,100.00
2023-05-17T07:42:45.091Z,100.00
2023-05-17T07:45:11.697Z,100.00
2023-05-17T07:47:38.168Z,100.00
2023-05-17T07:50:05.140Z,100.00
2023-05-17T07:52:31.521Z,100.00
2023-05-17T07:54:58.000Z,100.00
2023-05-17T07:57:24.662Z,100.00
2023-05-17T07:59:51.055Z,100.00
2023-05-17T08:02:17.521Z,100.00
2023-05-17T08:04:43.972Z,100.00
2023-05-17T08:07:10.472Z,100.00
2023-05-17T08:09:36.970Z,100.00
2023-05-17T08:12:03.469Z,100.00
2023-05-17T08:14:29.984Z,100.00
2023-05-17T08:16:56.403Z,100.00
2023-05-17T08:19:23.025Z,100.00
2023-05-17T08:21:49.616Z,100.00
2023-05-17T08:24:17.549Z,100.00
2023-05-17T08:26:43.985Z,100.00
2023-05-17T08:29:10.423Z,100.00
2023-05-17T08:31:36.832Z,100.00
2023-05-17T08:34:03.581Z,100.00
2023-05-17T08:36:30.077Z,100.00
2023-05-17T08:38:56.481Z,100.00
2023-05-17T08:41:23.000Z,100.00
2023-05-17T08:43:49.877Z,100.00
2023-05-17T08:46:18.484Z,100.00
2023-05-17T08:48:44.969Z,100.00
2023-05-17T08:51:12.121Z,100.00
2023-05-17T08:53:38.770Z,100.00
2023-05-17T08:56:07.152Z,100.00
2023-05-17T08:58:51.677Z,100.00
2023-05-17T09:01:23.637Z,100.00
2023-05-17T09:03:52.000Z,100.00
2023-05-17T09:06:21.495Z,100.00
2023-05-17T09:08:48.252Z,100.00
2023-05-17T09:11:19.486Z,100.00
2023-05-17T09:13:45.879Z,100.00
2023-05-17T09:16:16.316Z,100.00
2023-05-17T09:18:42.932Z,100.00
2023-05-17T09:21:09.850Z,100.00
2023-05-17T09:23:37.913Z,99.45
2023-05-17T09:26:06.327Z,100.00
2023-05-17T09:28:38.289Z,100.00
2023-05-17T09:31:13.481Z,99.17
2023-05-17T09:33:47.028Z,99.12
2023-05-17T09:36:20.868Z,100.00
2023-05-17T09:38:53.572Z,100.00
2023-05-17T09:41:20.250Z,100.00
2023-05-17T09:43:46.731Z,100.00
2023-05-17T09:46:13.323Z,100.00
2023-05-17T09:48:39.894Z,100.00
2023-05-17T09:51:07.229Z,100.00
2023-05-17T09:53:38.290Z,98.96
2023-05-17T09:56:05.539Z,97.00
2023-05-17T09:58:32.136Z,97.76
2023-05-17T10:00:59.973Z,97.03
2023-05-17T10:03:34.228Z,96.17
2023-05-17T10:06:16.592Z,96.59
2023-05-17T10:08:58.474Z,97.05
2023-05-17T10:11:28.384Z,98.63
2023-05-17T10:14:11.450Z,97.34
2023-05-17T10:16:38.379Z,98.09
2023-05-17T10:19:05.317Z,98.64
2023-05-17T10:21:32.182Z,98.54
2023-05-17T10:23:59.642Z,99.95
2023-05-17T10:26:26.081Z,99.05
2023-05-17T10:28:54.196Z,97.79
2023-05-17T10:31:21.041Z,97.50
2023-05-17T10:33:47.603Z,98.22
2023-05-17T10:36:14.988Z,97.45
2023-05-17T10:38:42.804Z,96.78
2023-05-17T10:41:11.590Z,97.10
2023-05-17T10:43:38.111Z,95.75
2023-05-17T10:46:04.555Z,95.38
2023-05-17T10:48:31.315Z,95.76
2023-05-17T10:51:01.707Z,94.25
2023-05-17T10:53:28.500Z,92.22
2023-05-17T10:55:55.084Z,91.03
2023-05-17T10:58:22.468Z,91.16
2023-05-17T11:00:50.147Z,90.27
2023-05-17T11:03:34.504Z,90.53
2023-05-17T11:06:25.389Z,90.47
2023-05-17T11:09:09.664Z,88.58
2023-05-17T11:11:36.310Z,87.22
2023-05-17T11:14:03.684Z,86.42
2023-05-17T11:16:37.399Z,84.67
2023-05-17T11:19:11.709Z,82.22
2023-05-17T11:21:48.087Z,80.98
2023-05-17T11:24:26.718Z,78.83
2023-05-17T11:26:53.311Z,78.02
2023-05-17T11:29:19.823Z,79.38
2023-05-17T11:31:46.295Z,79.53
2023-05-17T11:34:12.976Z,78.92
2023-05-17T11:36:53.057Z,81.83
2023-05-17T11:39:21.217Z,83.19
2023-05-17T11:41:49.039Z,83.84
2023-05-17T11:44:34.932Z,83.47
2023-05-17T11:47:05.812Z,80.77
2023-05-17T11:49:36.140Z,80.16
2023-05-17T11:52:06.416Z,79.33
2023-05-17T11:54:33.106Z,78.61
2023-05-17T11:56:59.957Z,79.42
2023-05-17T11:59:26.477Z,77.24
2023-05-17T12:01:53.126Z,78.02
2023-05-17T12:04:26.393Z,76.33
2023-05-17T12:06:53.749Z,76.39
2023-05-17T12:09:21.132Z,76.69
2023-05-17T12:11:47.888Z,76.57
2023-05-17T12:14:21.916Z,77.41
2023-05-17T12:16:56.379Z,77.63
2023-05-17T12:19:30.048Z,76.22
2023-05-17T12:22:12.225Z,77.51
2023-05-17T12:24:39.909Z,78.29
2023-05-17T12:27:06.427Z,78.32
2023-05-17T12:29:32.889Z,77.44
2023-05-17T12:31:59.624Z,76.33
2023-05-17T12:34:26.142Z,77.49
2023-05-17T12:36:53.195Z,78.73
2023-05-17T12:39:23.875Z,78.67
2023-05-17T12:41:53.956Z,77.02
2023-05-17T12:44:20.606Z,75.25
2023-05-17T12:46:59.055Z,74.83
2023-05-17T12:49:25.481Z,73.54
2023-05-17T12:51:54.861Z,75.26
2023-05-17T12:54:24.271Z,76.40
2023-05-17T12:56:50.873Z,75.46
2023-05-17T12:59:17.720Z,73.74
2023-05-17T13:01:44.845Z,72.81
2023-05-17T13:04:12.019Z,73.63
2023-05-17T13:06:58.151Z,74.19
2023-05-17T13:09:25.743Z,74.78
2023-05-17T13:11:59.594Z,75.84
2023-05-17T13:14:47.170Z,74.59
2023-05-17T13:17:27.223Z,75.10
2023-05-17T13:19:56.484Z,72.61
2023-05-17T13:22:25.037Z,74.22
2023-05-17T13:24:51.482Z,75.70
2023-05-17T13:27:18.290Z,75.21
2023-05-17T13:29:44.862Z,73.86
2023-05-17T13:32:12.354Z,74.96
2023-05-17T13:34:39.194Z,75.09
2023-05-17T13:37:08.594Z,76.10
2023-05-17T13:39:36.993Z,76.87
2023-05-17T13:42:03.619Z,74.86
2023-05-17T13:44:30.073Z,74.06
2023-05-17T13:46:56.554Z,74.67
2023-05-17T13:49:22.987Z,75.30
2023-05-17T13:51:49.450Z,75.25
2023-05-17T13:54:15.942Z,74.35
2023-05-17T13:56:42.412Z,71.78
2023-05-17T13:59:08.810Z,72.30
2023-05-17T14:01:35.649Z,72.52
2023-05-17T14:04:02.121Z,70.66
2023-05-17T14:06:28.832Z,70.49
2023-05-17T14:08:57.311Z,72.23
2023-05-17T14:11:23.776Z,71.48
2023-05-17T14:13:50.249Z,71.18
2023-05-17T14:16:16.865Z,69.35
2023-05-17T14:18:43.326Z,69.67
2023-05-17T14:21:10.040Z,71.05
2023-05-17T14:23:36.683Z,68.46
2023-05-17T14:26:07.001Z,70.47
2023-05-17T14:28:33.925Z,70.07
2023-05-17T14:31:00.374Z,71.27
2023-05-17T14:33:28.242Z,70.38
2023-05-17T14:35:54.767Z,71.25
2023-05-17T14:38:23.211Z,70.04
2023-05-17T14:40:49.662Z,69.73
2023-05-17T14:43:16.582Z,70.27
2023-05-17T14:45:43.181Z,69.97
2023-05-17T14:48:09.655Z,70.31
2023-05-17T14:50:36.331Z,69.59
2023-05-17T14:53:02.832Z,69.74
2023-05-17T14:55:30.056Z,69.58
2023-05-17T14:57:57.949Z,67.31
2023-05-17T15:00:24.881Z,68.56
2023-05-17T15:02:51.317Z,68.15
2023-05-17T15:05:18.589Z,68.78
2023-05-17T15:07:45.317Z,69.77
2023-05-17T15:10:12.990Z,71.13
2023-05-17T15:12:39.409Z,71.38
2023-05-17T15:15:06.747Z,69.00
2023-05-17T15:17:33.774Z,67.28
2023-05-17T15:20:00.341Z,67.53
2023-05-17T15:22:27.108Z,69.24
2023-05-17T15:24:54.330Z,66.79
2023-05-17T15:27:20.850Z,68.10
2023-05-17T15:29:47.290Z,66.27
2023-05-17T15:32:13.729Z,64.86
2023-05-17T15:34:40.200Z,66.21
2023-05-17T15:37:06.934Z,64.77
2023-05-17T15:39:33.336Z,66.03
2023-05-17T15:41:59.812Z,70.41
2023-05-17T15:44:26.425Z,69.97
2023-05-17T15:46:52.847Z,72.14
2023-05-17T15:49:19.317Z,70.54
2023-05-17T15:51:45.903Z,68.84
2023-05-17T15:54:12.340Z,68.49
2023-05-17T15:56:38.808Z,69.64
2023-05-17T15:59:05.653Z,69.16
2023-05-17T16:01:32.260Z,71.07
2023-05-17T16:03:58.712Z,67.27
2023-05-17T16:06:25.288Z,66.20
2023-05-17T16:08:51.811Z,65.16
2023-05-17T16:11:18.230Z,63.78
2023-05-17T16:13:44.683Z,63.39
2023-05-17T16:16:13.291Z,63.81
2023-05-17T16:18:39.841Z,62.22
2023-05-17T16:21:06.588Z,66.60
2023-05-17T16:23:33.012Z,68.79
2023-05-17T16:25:59.876Z,67.20
2023-05-17T16:28:26.362Z,65.60
2023-05-17T16:30:52.921Z,63.20
2023-05-17T16:33:22.356Z,64.76
2023-05-17T16:35:48.966Z,63.48
2023-05-17T16:38:15.592Z,63.96
2023-05-17T16:40:42.196Z,64.86
2023-05-17T16:43:08.902Z,68.79
2023-05-17T16:45:35.341Z,71.17
2023-05-17T16:48:01.894Z,73.60
2023-05-17T16:50:28.546Z,72.89
2023-05-17T16:52:55.156Z,72.54
2023-05-17T16:55:21.675Z,73.23
2023-05-17T16:57:48.124Z,72.85
2023-05-17T17:00:14.985Z,71.88
2023-05-17T17:02:41.445Z,72.73
2023-05-17T17:05:08.303Z,73.05
2023-05-17T17:07:34.744Z,73.58
2023-05-17T17:10:01.267Z,73.42
2023-05-17T17:12:27.799Z,72.54
2023-05-17T17:14:54.232Z,72.90
2023-05-17T17:17:20.700Z,73.60
2023-05-17T17:19:47.460Z,73.58
2023-05-17T17:22:14.688Z,73.93
2023-05-17T17:24:41.366Z,73.43
2023-05-17T17:27:08.206Z,73.84
2023-05-17T17:29:34.703Z,74.65
2023-05-17T17:32:02.150Z,74.33
2023-05-17T17:34:28.792Z,75.08
2023-05-17T17:36:55.293Z,75.94
2023-05-17T17:39:21.771Z,75.87
2023-05-17T17:41:48.415Z,76.91
2023-05-17T17:44:14.811Z,78.47
2023-05-17T17:46:41.432Z,79.91
2023-05-17T17:49:07.909Z,80.67
2023-05-17T17:51:34.306Z,80.84
2023-05-17T17:54:00.872Z,80.77
2023-05-17T17:56:27.349Z,81.50
2023-05-17T17:58:55.885Z,82.19
2023-05-17T18:01:23.057Z,82.21
2023-05-17T18:03:49.573Z,82.54
2023-05-17T18:06:16.171Z,82.86
2023-05-17T18:08:42.645Z,82.68
2023-05-17T18:11:09.119Z,83.03
2023-05-17T18:13:35.646Z,83.19
2023-05-17T18:16:02.194Z,83.88
2023-05-17T18:18:28.814Z,84.55
2023-05-17T18:20:55.364Z,85.03
2023-05-17T18:23:21.768Z,85.82
2023-05-17T18:25:50.591Z,86.26
2023-05-17T18:28:19.844Z,86.93
2023-05-17T18:30:53.264Z,88.05
2023-05-17T18:33:19.688Z,87.68
2023-05-17T18:35:46.263Z,88.00
2023-05-17T18:38:12.876Z,89.12
2023-05-17T18:40:39.320Z,89.68
2023-05-17T18:43:05.792Z,89.41
2023-05-17T18:45:36.170Z,90.72
2023-05-17T18:48:03.467Z,90.70
2023-05-17T18:50:30.311Z,91.29
2023-05-17T18:52:57.307Z,92.04
2023-05-17T18:55:23.815Z,92.34
2023-05-17T18:57:50.226Z,92.61
2023-05-17T19:00:16.907Z,93.20
2023-05-17T19:02:43.330Z,93.71
2023-05-17T19:05:09.754Z,94.93
2023-05-17T19:07:36.181Z,95.55
2023-05-17T19:10:04.316Z,95.60
2023-05-17T19:12:30.749Z,96.67
2023-05-17T19:14:57.286Z,96.29
2023-05-17T19:17:23.797Z,96.95
2023-05-17T19:19:50.335Z,97.78
2023-05-17T19:22:16.910Z,98.67
2023-05-17T19:24:43.326Z,98.87
2023-05-17T19:27:10.548Z,99.50
2023-05-17T19:29:36.989Z,99.99
2023-05-17T19:32:04.522Z,100.00
2023-05-17T19:34:31.191Z,100.00
2023-05-17T19:36:58.723Z,100.00
2023-05-17T19:39:25.546Z,100.00
2023-05-17T19:41:52.015Z,100.00
2023-05-17T19:44:18.459Z,100.00
2023-05-17T19:46:44.955Z,100.00
2023-05-17T19:49:12.358Z,100.00
2023-05-17T19:51:39.152Z,100.00
2023-05-17T19:54:06.055Z,100.00
2023-05-17T19:56:32.492Z,100.00
2023-05-17T19:58:59.008Z,100.00
2023-05-17T20:01:25.526Z,100.00
2023-05-17T20:03:52.091Z,100.00
2023-05-17T20:06:18.711Z,100.00
2023-05-17T20:08:45.159Z,100.00
2023-05-17T20:11:11.561Z,100.00
2023-05-17T20:13:40.900Z,100.00
2023-05-17T20:16:12.562Z,100.00
2023-05-17T20:18:43.160Z,100.00
2023-05-17T20:21:11.176Z,100.00
2023-05-17T20:23:37.793Z,100.00
2023-05-17T20:26:04.517Z,100.00
2023-05-17T20:28:30.928Z,100.00
2023-05-17T20:30:57.433Z,100.00
2023-05-17T20:33:26.675Z,100.00
2023-05-17T20:35:53.759Z,100.00
2023-05-17T20:38:20.486Z,100.00
2023-05-17T20:40:46.989Z,100.00
2023-05-17T20:43:14.379Z,100.00
2023-05-17T20:45:40.859Z,100.00
2023-05-17T20:48:07.501Z,100.00
2023-05-17T20:50:33.980Z,100.00
2023-05-17T20:53:00.451Z,100.00
2023-05-17T20:55:26.862Z,100.00
2023-05-17T20:57:53.352Z,100.00
2023-05-17T21:00:20.830Z,100.00
2023-05-17T21:02:47.520Z,100.00
2023-05-17T21:05:14.111Z,100.00
2023-05-17T21:07:40.565Z,100.00
2023-05-17T21:10:08.091Z,100.00
2023-05-17T21:12:35.082Z,100.00
2023-05-17T21:15:15.890Z,100.00
2023-05-17T21:17:43.420Z,100.00
2023-05-17T21:20:10.429Z,100.00
2023-05-17T21:22:37.460Z,100.00
2023-05-17T21:25:04.323Z,100.00
2023-05-17T21:27:30.798Z,100.00
2023-05-17T21:29:57.226Z,100.00
2023-05-17T21:32:23.678Z,100.00
2023-05-17T21:34:52.104Z,100.00
2023-05-17T21:37:19.311Z,100.00
2023-05-17T21:39:46.126Z,100.00
2023-05-17T21:42:12.515Z,100.00
2023-05-17T21:44:38.914Z,100.00
2023-05-17T21:47:05.733Z,100.00
2023-05-17T21:49:32.305Z,100.00
2023-05-17T21:51:58.764Z,100.00
2023-05-17T21:54:25.686Z,100.00
2023-05-17T21:56:52.246Z,100.00
2023-05-17T21:59:18.685Z,100.00
2023-05-17T22:01:45.355Z,100.00
2023-05-17T22:04:11.928Z,100.00
2023-05-17T22:06:38.319Z,100.00
2023-05-17T22:09:07.258Z,100.00
2023-05-17T22:11:38.214Z,100.00
2023-05-17T22:14:08.077Z,100.00
2023-05-17T22:16:35.733Z,100.00
2023-05-17T22:19:02.261Z,100.00
2023-05-17T22:21:28.760Z,100.00
2023-05-17T22:23:56.075Z,100.00
2023-05-17T22:26:22.800Z,100.00
2023-05-17T22:28:50.501Z,100.00
2023-05-17T22:31:18.465Z,100.00
2023-05-17T22:33:45.479Z,100.00
2023-05-17T22:36:14.776Z,100.00
2023-05-17T22:38:42.633Z,100.00
2023-05-17T22:41:09.990Z,100.00
2023-05-17T22:43:36.551Z,100.00
2023-05-17T22:46:03.488Z,100.00
2023-05-17T22:48:30.439Z,100.00
2023-05-17T22:50:58.744Z,100.00
2023-05-17T22:53:25.567Z,100.00
2023-05-17T22:55:51.989Z,100.00
2023-05-17T22:58:18.556Z,100.00
2023-05-17T23:00:44.982Z,100.00
2023-05-17T23:03:11.723Z,100.00
2023-05-17T23:05:38.180Z,100.00
2023-05-17T23:08:05.535Z,100.00
2023-05-17T23:10:32.051Z,100.00
2023-05-17T23:12:58.482Z,100.00
2023-05-17T23:15:25.909Z,100.00
2023-05-17T23:17:52.917Z,100.00
2023-05-17T23:20:20.057Z,100.00
2023-05-17T23:22:47.797Z,100.00
2023-05-17T23:25:15.605Z,100.00
2023-05-17T23:27:44.360Z,100.00
2023-05-17T23:30:11.413Z,100.00
2023-05-17T23:32:37.960Z,100.00
2023-05-17T23:35:04.984Z,100.00
2023-05-17T23:37:35.152Z,100.00
2023-05-17T23:40:01.760Z,100.00
2023-05-17T23:42:31.720Z,100.00
2023-05-17T23:45:02.139Z,100.00
2023-05-17T23:47:28.673Z,100.00
2023-05-17T23:49:55.470Z,100.00
2023-05-17T23:52:23.582Z,100.00
2023-05-17T23:54:50.058Z,100.00
2023-05-17T23:57:16.465Z,100.00
2023-05-17T23:59:43.091Z,100.00
